createdAt,value
2019-01-13T09:02:14.956Z,18.50
2019-01-13T09:03:15.900Z,18.60
2019-01-13T09:04:16.864Z,18.60
2019-01-13T09:05:17.825Z,18.60
2019-01-13T09:06:20.100Z,18.70
2019-01-13T09:07:21.041Z,18.80
2019-01-13T09:08:22.466Z,18.80
2019-01-13T09:09:23.414Z,18.80
2019-01-13T09:10:24.395Z,18.90
2019-01-13T09:11:25.613Z,18.90
2019-01-13T09:12:29.374Z,19.00
2019-01-13T09:13:30.407Z,19.00
2019-01-13T09:14:34.932Z,19.10
2019-01-13T09:15:36.191Z,19.10
2019-01-13T09:16:37.192Z,19.20
2019-01-13T09:17:38.134Z,19.20
2019-01-13T09:18:39.104Z,19.20
2019-01-13T09:19:40.052Z,19.30
2019-01-13T09:20:41.427Z,19.30
2019-01-13T09:21:49.612Z,19.40
2019-01-13T09:22:53.359Z,19.40
2019-01-13T09:23:54.402Z,19.50
2019-01-13T09:24:55.349Z,19.50
2019-01-13T09:25:56.548Z,19.50
2019-01-13T09:27:00.830Z,19.60
2019-01-13T09:28:03.500Z,19.60
2019-01-13T09:29:04.731Z,19.60
2019-01-13T09:30:07.649Z,19.70
2019-01-13T09:31:11.508Z,19.80
2019-01-13T09:32:13.608Z,19.80
2019-01-13T09:33:14.563Z,19.80
2019-01-13T09:34:15.528Z,19.90
2019-01-13T09:35:16.473Z,19.90
2019-01-13T09:36:17.451Z,19.90
2019-01-13T09:37:21.160Z,20.00
2019-01-13T09:38:22.612Z,20.00
2019-01-13T09:39:23.689Z,20.00
2019-01-13T09:40:27.634Z,20.00
2019-01-13T09:41:28.592Z,20.00
2019-01-13T09:42:29.597Z,20.00
2019-01-13T09:43:32.434Z,20.00
2019-01-13T09:44:33.769Z,20.00
2019-01-13T09:45:34.918Z,20.00
2019-01-13T09:46:36.005Z,20.00
2019-01-13T09:47:37.463Z,20.00
2019-01-13T09:48:40.331Z,20.00
2019-01-13T09:49:41.291Z,20.10
2019-01-13T09:50:44.538Z,20.20
2019-01-13T09:51:45.588Z,20.20
2019-01-13T09:52:47.965Z,20.30
2019-01-13T09:53:48.925Z,20.30
2019-01-13T09:54:59.517Z,20.40
2019-01-13T09:56:05.741Z,20.40
2019-01-13T09:57:10.480Z,20.40
2019-01-13T09:58:11.594Z,20.40
2019-01-13T09:59:12.642Z,20.40
2019-01-13T10:00:24.062Z,20.40
2019-01-13T10:01:25.359Z,20.50
2019-01-13T10:02:31.622Z,20.50
2019-01-13T10:03:37.858Z,20.50
2019-01-13T10:04:42.189Z,20.60
2019-01-13T10:05:43.168Z,20.60
2019-01-13T10:06:44.136Z,20.60
2019-01-13T10:07:45.188Z,20.60
2019-01-13T10:08:46.595Z,20.60
2019-01-13T10:09:47.658Z,20.70
2019-01-13T10:10:51.691Z,20.70
2019-01-13T10:11:53.703Z,20.70
2019-01-13T10:12:54.650Z,20.70
2019-01-13T10:13:55.765Z,20.70
2019-01-13T10:14:58.840Z,20.70
2019-01-13T10:15:59.823Z,20.70
2019-01-13T10:17:00.849Z,20.60
2019-01-13T10:18:01.837Z,20.50
2019-01-13T10:19:03.305Z,20.40
2019-01-13T10:20:08.521Z,20.40
2019-01-13T10:21:16.437Z,20.20
2019-01-13T10:22:20.160Z,20.10
2019-01-13T10:23:29.193Z,20.00
2019-01-13T10:24:33.001Z,20.00
2019-01-13T10:25:43.909Z,19.90
2019-01-13T10:26:50.155Z,19.90
2019-01-13T10:27:51.146Z,19.90
2019-01-13T10:28:52.201Z,19.90
2019-01-13T10:29:53.741Z,19.80
2019-01-13T10:31:03.189Z,19.80
2019-01-13T10:32:06.786Z,19.80
2019-01-13T10:33:17.222Z,19.90
2019-01-13T10:34:21.220Z,19.90
2019-01-13T10:35:22.418Z,20.00
2019-01-13T10:36:23.354Z,20.10
2019-01-13T10:37:24.292Z,20.10
2019-01-13T10:38:25.228Z,20.20
2019-01-13T10:39:26.182Z,20.20
2019-01-13T10:40:27.431Z,20.20
2019-01-13T10:41:28.406Z,20.20
2019-01-13T10:42:29.458Z,20.20
2019-01-13T10:43:30.400Z,20.10
2019-01-13T10:44:31.739Z,20.20
2019-01-13T10:45:32.821Z,20.20
2019-01-13T10:46:33.776Z,20.10
2019-01-13T10:47:37.811Z,20.10
2019-01-13T10:48:38.776Z,20.10
2019-01-13T10:49:39.745Z,20.10
2019-01-13T10:50:41.082Z,20.10
2019-01-13T10:51:42.063Z,20.10
2019-01-13T10:52:43.008Z,20.10
2019-01-13T10:53:46.929Z,20.10
2019-01-13T10:54:47.885Z,20.10
2019-01-13T10:55:49.089Z,20.10
2019-01-13T10:56:59.256Z,20.10
2019-01-13T10:58:00.205Z,20.10
2019-01-13T10:59:01.549Z,20.10
2019-01-13T11:00:04.456Z,20.10
2019-01-13T11:01:05.472Z,20.10
2019-01-13T11:02:06.432Z,20.10
2019-01-13T11:03:09.465Z,20.10
2019-01-13T11:04:11.205Z,20.10
2019-01-13T11:05:12.156Z,20.10
2019-01-13T11:06:13.252Z,20.10
2019-01-13T11:07:14.212Z,20.10
2019-01-13T11:08:15.157Z,20.10
2019-01-13T11:09:16.394Z,20.10
2019-01-13T11:10:18.044Z,20.10
2019-01-13T11:11:19.056Z,20.10
2019-01-13T11:12:20.043Z,20.10
2019-01-13T11:13:23.946Z,20.10
2019-01-13T11:14:24.913Z,20.10
2019-01-13T11:15:26.149Z,20.10
2019-01-13T11:16:27.156Z,20.10
2019-01-13T11:17:29.349Z,20.10
2019-01-13T11:18:30.295Z,20.10
2019-01-13T11:19:33.051Z,20.10
2019-01-13T11:20:35.217Z,20.10
2019-01-13T11:21:45.860Z,20.10
2019-01-13T11:22:46.815Z,20.10
2019-01-13T11:23:47.797Z,20.10
2019-01-13T11:24:48.850Z,20.10
2019-01-13T11:25:50.073Z,20.10
2019-01-13T11:26:51.231Z,20.10
2019-01-13T11:27:52.173Z,20.10
2019-01-13T11:28:53.164Z,20.10
2019-01-13T11:29:54.297Z,20.10
2019-01-13T11:30:55.368Z,20.10
2019-01-13T11:32:05.637Z,20.10
2019-01-13T11:33:09.727Z,20.10
2019-01-13T11:34:09.472Z,20.00
2019-01-13T11:35:11.856Z,20.00
2019-01-13T11:36:12.810Z,20.00
2019-01-13T11:37:13.848Z,20.00
2019-01-13T11:38:14.798Z,20.00
2019-01-13T11:39:16.136Z,20.00
2019-01-13T11:40:18.024Z,20.00
2019-01-13T11:41:21.250Z,19.90
2019-01-13T11:42:25.212Z,19.90
2019-01-13T11:43:26.183Z,19.90
2019-01-13T11:44:27.132Z,19.90
2019-01-13T11:45:28.353Z,19.90
2019-01-13T11:46:32.320Z,19.90
2019-01-13T11:47:33.364Z,19.80
2019-01-13T11:48:34.398Z,19.80
2019-01-13T11:49:35.365Z,19.80
2019-01-13T11:50:36.298Z,19.80
2019-01-13T11:51:39.438Z,19.80
2019-01-13T11:52:40.510Z,19.80
2019-01-13T11:53:41.461Z,19.80
2019-01-13T11:54:44.307Z,19.70
2019-01-13T11:55:45.268Z,19.70
2019-01-13T11:56:46.215Z,19.70
2019-01-13T11:57:47.430Z,19.70
2019-01-13T11:58:50.279Z,19.70
2019-01-13T11:59:51.245Z,19.70
2019-01-13T12:00:52.225Z,19.70
2019-01-13T12:01:53.197Z,19.70
2019-01-13T12:02:54.317Z,19.70
2019-01-13T12:03:56.433Z,19.60
2019-01-13T12:04:57.384Z,19.60
2019-01-13T12:05:58.341Z,19.60
2019-01-13T12:07:01.205Z,19.60
2019-01-13T12:08:05.453Z,19.60
2019-01-13T12:09:08.350Z,19.60
2019-01-13T12:10:13.919Z,19.60
2019-01-13T12:11:14.064Z,19.60
2019-01-13T12:12:17.459Z,19.50
2019-01-13T12:13:18.502Z,19.60
2019-01-13T12:14:19.457Z,19.60
2019-01-13T12:15:20.932Z,19.60
2019-01-13T12:16:24.833Z,19.50
2019-01-13T12:17:35.681Z,19.50
2019-01-13T12:18:40.435Z,19.50
2019-01-13T12:19:39.965Z,19.50
2019-01-13T12:20:40.940Z,19.50
2019-01-13T12:21:41.903Z,19.40
2019-01-13T12:22:42.854Z,19.50
2019-01-13T12:23:43.883Z,19.50
2019-01-13T12:24:45.940Z,19.40
2019-01-13T12:25:52.526Z,19.40
2019-01-13T12:26:49.732Z,19.40
2019-01-13T12:27:50.893Z,19.40
2019-01-13T12:28:54.385Z,19.40
2019-01-13T12:29:55.655Z,19.40
2019-01-13T12:30:56.922Z,19.40
2019-01-13T12:31:57.911Z,19.40
2019-01-13T12:32:59.764Z,19.40
2019-01-13T12:34:00.888Z,19.50
2019-01-13T12:58:13.969Z,26.90
2019-01-13T12:59:20.735Z,25.40
2019-01-13T13:00:22.334Z,24.90
2019-01-13T13:01:25.731Z,27.00
2019-01-13T13:05:37.722Z,26.80
2019-01-13T13:06:39.180Z,26.30
2019-01-13T13:07:42.406Z,25.60
2019-01-13T13:14:30.187Z,15.40
2019-01-13T13:15:31.389Z,13.70
2019-01-13T13:16:33.848Z,12.90
2019-01-13T13:17:35.154Z,12.60
2019-01-13T13:18:36.638Z,12.30
2019-01-13T13:19:38.421Z,12.20
2019-01-13T13:20:40.239Z,12.00
2019-01-13T13:21:41.763Z,11.70
2019-01-13T13:22:43.244Z,11.60
2019-01-13T13:23:44.581Z,11.60
2019-01-13T13:24:49.099Z,11.70
2019-01-13T13:25:50.837Z,11.80
2019-01-13T13:26:52.298Z,11.80
2019-01-13T13:27:53.604Z,11.80
2019-01-13T13:28:56.464Z,11.60
2019-01-13T13:29:58.122Z,11.30
2019-01-13T13:31:02.305Z,11.40
2019-01-13T13:32:03.920Z,11.40
2019-01-13T13:33:12.006Z,11.50
2019-01-13T13:34:13.429Z,11.60
2019-01-13T13:35:14.971Z,11.60
2019-01-13T13:36:16.437Z,11.60
2019-01-13T13:37:17.690Z,11.60
2019-01-13T13:38:20.229Z,11.60
2019-01-13T13:39:21.545Z,11.70
2019-01-13T13:40:25.529Z,11.60
2019-01-13T13:41:29.607Z,11.70
2019-01-13T13:42:36.865Z,11.60
2019-01-13T13:43:38.111Z,11.60
2019-01-13T13:44:39.635Z,11.60
2019-01-13T13:45:40.987Z,11.60
2019-01-13T13:46:42.410Z,11.70
2019-01-13T13:47:43.618Z,11.60
2019-01-13T13:48:45.016Z,11.60
2019-01-13T13:49:46.455Z,11.60
2019-01-13T13:50:48.205Z,11.70
2019-01-13T13:51:49.695Z,11.80
2019-01-13T13:52:51.051Z,11.80
2019-01-13T13:53:52.513Z,11.70
2019-01-13T13:54:53.918Z,11.70
2019-01-13T13:55:55.386Z,11.70
2019-01-13T13:56:56.983Z,11.70
2019-01-13T13:57:58.273Z,11.60
2019-01-13T13:58:59.560Z,11.70
2019-01-13T14:00:00.907Z,11.80
2019-01-13T14:01:02.437Z,11.80
2019-01-13T14:02:04.517Z,11.70
2019-01-13T14:03:07.954Z,11.80
2019-01-13T14:04:13.079Z,11.80
2019-01-13T14:05:14.547Z,11.70
2019-01-13T14:06:19.722Z,11.80
2019-01-13T14:07:24.197Z,11.90
2019-01-13T14:08:34.464Z,11.80
2019-01-13T14:10:24.136Z,11.80
2019-01-13T14:11:25.729Z,11.60
2019-01-13T14:12:27.209Z,11.50
2019-01-13T14:13:28.700Z,11.50
2019-01-13T14:14:30.261Z,11.60
2019-01-13T14:15:31.786Z,11.60
2019-01-13T14:16:34.504Z,11.50
2019-01-13T14:17:36.423Z,11.40
2019-01-13T14:18:40.803Z,11.30
2019-01-13T14:19:44.582Z,11.50
2019-01-13T14:20:45.950Z,11.40
2019-01-13T14:21:47.464Z,11.50
2019-01-13T14:22:52.198Z,11.50
2019-01-13T14:23:53.828Z,11.60
2019-01-13T14:24:55.917Z,11.70
2019-01-13T14:25:57.776Z,11.60
2019-01-13T14:26:59.991Z,11.70
2019-01-13T14:28:01.973Z,11.70
2019-01-13T14:29:05.611Z,11.60
2019-01-13T14:30:12.007Z,11.60
2019-01-13T14:31:13.403Z,11.60
2019-01-13T14:32:15.543Z,11.60
2019-01-13T14:33:17.181Z,11.60
2019-01-13T14:34:18.899Z,11.50
2019-01-13T14:35:21.375Z,11.40
2019-01-13T14:36:22.985Z,11.50
2019-01-13T14:37:24.771Z,11.30
2019-01-13T14:38:26.929Z,11.30
2019-01-13T14:39:28.723Z,11.20
2019-01-13T14:40:30.209Z,11.10
2019-01-13T14:41:32.259Z,11.30
2019-01-13T14:42:37.495Z,11.40
2019-01-13T14:43:39.366Z,11.60
2019-01-13T14:44:43.679Z,11.80
2019-01-13T14:45:47.098Z,11.90
2019-01-13T14:49:19.976Z,13.80
2019-01-13T14:50:22.355Z,13.90
2019-01-13T14:51:23.795Z,13.80
2019-01-13T14:52:25.203Z,13.60
2019-01-13T14:53:26.587Z,13.40
2019-01-13T14:54:28.418Z,13.30
2019-01-13T14:55:29.874Z,13.40
2019-01-13T14:56:31.257Z,13.20
2019-01-13T14:57:32.653Z,13.00
2019-01-13T14:58:34.053Z,13.00
2019-01-13T14:59:35.552Z,13.00
2019-01-13T15:00:37.226Z,13.00
2019-01-13T15:01:38.784Z,13.10
2019-01-13T15:02:43.079Z,13.00
2019-01-13T15:03:47.254Z,12.90
2019-01-13T15:04:52.154Z,13.00
2019-01-13T15:05:56.523Z,13.00
2019-01-13T15:06:59.848Z,13.00
2019-01-13T15:08:04.054Z,13.10
2019-01-13T15:09:07.537Z,13.10
2019-01-13T15:10:10.361Z,13.00
2019-01-13T15:11:11.741Z,13.10
2019-01-13T15:12:13.178Z,13.10
2019-01-13T15:13:14.568Z,13.20
2019-01-13T15:14:19.099Z,13.20
2019-01-13T15:15:20.582Z,13.20
2019-01-13T15:16:21.966Z,13.10
2019-01-13T15:17:23.441Z,13.10
2019-01-13T15:18:27.154Z,12.90
2019-01-13T15:19:28.826Z,13.00
2019-01-13T15:20:30.411Z,12.90
2019-01-13T15:21:31.727Z,12.90
2019-01-13T15:22:33.124Z,12.70
2019-01-13T15:23:34.513Z,12.90
2019-01-13T15:24:36.292Z,12.70
2019-01-13T15:25:37.778Z,12.70
2019-01-13T15:26:39.152Z,12.80
2019-01-13T15:27:40.542Z,12.90
2019-01-13T15:28:45.084Z,12.70
2019-01-13T15:29:46.473Z,12.50
2019-01-13T15:30:48.203Z,12.60
2019-01-13T15:31:49.906Z,12.60
2019-01-13T15:32:51.612Z,12.60
2019-01-13T15:33:52.995Z,12.70
2019-01-13T15:34:54.394Z,12.70
2019-01-13T15:35:55.901Z,12.80
2019-01-13T15:37:00.091Z,12.80
2019-01-13T15:38:01.780Z,12.90
2019-01-13T15:39:04.866Z,12.90
2019-01-13T15:40:08.146Z,12.70
2019-01-13T15:41:10.383Z,12.40
2019-01-13T15:42:12.681Z,12.60
2019-01-13T15:43:14.655Z,12.70
2019-01-13T15:44:16.340Z,12.60
2019-01-13T15:45:17.977Z,12.40
2019-01-13T15:46:21.041Z,12.50
2019-01-13T15:47:22.710Z,12.40
2019-01-13T15:48:24.102Z,12.30
2019-01-13T15:49:25.498Z,12.40
2019-01-13T15:50:27.536Z,12.60
2019-01-13T15:51:29.044Z,12.60
2019-01-13T15:52:30.433Z,12.70
2019-01-13T15:53:32.739Z,12.70
2019-01-13T15:54:34.140Z,12.80
2019-01-13T15:55:35.899Z,12.80
2019-01-13T15:56:37.319Z,12.80
2019-01-13T15:57:38.699Z,12.60
2019-01-13T15:58:40.081Z,12.80
2019-01-13T15:59:41.541Z,12.80
2019-01-13T16:00:42.912Z,12.80
2019-01-13T16:01:44.662Z,12.90
2019-01-13T16:02:46.091Z,12.90
2019-01-13T16:03:49.323Z,12.80
2019-01-13T16:04:50.655Z,12.70
2019-01-13T16:05:54.009Z,12.60
2019-01-13T16:06:55.357Z,12.60
2019-01-13T16:07:57.509Z,12.50
2019-01-13T16:08:58.883Z,12.60
2019-01-13T16:10:00.259Z,12.70
2019-01-13T16:11:01.716Z,12.70
2019-01-13T16:12:03.269Z,12.70
2019-01-13T16:13:04.901Z,12.80
2019-01-13T16:14:06.531Z,12.90
2019-01-13T16:15:08.824Z,12.80
2019-01-13T16:16:10.211Z,12.70
2019-01-13T16:17:11.629Z,12.50
2019-01-13T16:18:13.003Z,12.70
2019-01-13T16:19:17.152Z,12.70
2019-01-13T16:20:20.355Z,12.70
2019-01-13T16:21:21.838Z,12.80
2019-01-13T16:22:23.216Z,13.00
2019-01-13T16:23:24.623Z,13.00
2019-01-13T16:24:29.319Z,13.00
2019-01-13T16:25:30.763Z,13.10
2019-01-13T16:26:33.559Z,12.90
2019-01-13T16:27:42.065Z,13.00
2019-01-13T16:28:43.520Z,13.00
2019-01-13T16:29:44.898Z,12.90
2019-01-13T16:30:47.468Z,13.00
2019-01-13T16:31:48.905Z,12.90
2019-01-13T16:32:50.690Z,12.70
2019-01-13T16:33:52.101Z,12.70
2019-01-13T16:34:53.494Z,12.70
2019-01-13T16:35:57.653Z,12.70
2019-01-13T16:36:59.031Z,12.80
2019-01-13T16:38:00.477Z,12.80
2019-01-13T16:39:04.659Z,12.60
2019-01-13T16:40:10.154Z,12.60
2019-01-13T16:41:11.548Z,12.80
2019-01-13T16:42:12.946Z,12.80
2019-01-13T16:43:15.059Z,12.90
2019-01-13T16:44:16.432Z,13.00
2019-01-13T16:45:18.308Z,13.00
2019-01-13T16:46:19.706Z,12.90
2019-01-13T16:47:24.278Z,12.80
2019-01-13T16:48:25.790Z,12.80
2019-01-13T16:49:27.195Z,12.80
2019-01-13T16:50:28.590Z,12.80
2019-01-13T16:51:33.496Z,12.90
2019-01-13T16:52:36.592Z,12.60
2019-01-13T16:53:37.982Z,12.60
2019-01-13T16:54:39.521Z,12.60
2019-01-13T16:55:40.905Z,12.70
2019-01-13T16:56:45.022Z,12.70
2019-01-13T16:57:46.398Z,12.60
2019-01-13T16:58:47.948Z,12.60
2019-01-13T16:59:49.310Z,12.60
2019-01-13T17:00:50.732Z,12.70
2019-01-13T17:01:52.117Z,12.50
2019-01-13T17:02:53.484Z,12.50
2019-01-13T17:03:58.091Z,12.70
2019-01-13T17:04:59.345Z,12.60
2019-01-13T17:06:00.748Z,12.70
2019-01-13T17:07:19.396Z,12.80
2019-01-13T17:08:20.786Z,12.80
2019-01-13T17:09:22.394Z,12.70
2019-01-13T17:10:26.019Z,12.70
2019-01-13T17:11:27.730Z,12.50
2019-01-13T17:12:31.205Z,12.50
2019-01-13T17:13:32.625Z,12.60
2019-01-13T17:14:34.326Z,12.50
2019-01-13T17:15:35.735Z,12.40
2019-01-13T17:16:37.464Z,12.50
2019-01-13T17:17:38.864Z,12.40
2019-01-13T17:18:43.935Z,12.40
2019-01-13T17:19:46.123Z,12.20
2019-01-13T17:20:48.208Z,12.20
2019-01-13T17:21:49.594Z,12.30
2019-01-13T17:22:53.989Z,12.40
2019-01-13T17:23:55.382Z,12.50
2019-01-13T17:24:56.835Z,12.60
2019-01-13T17:25:58.497Z,12.50
2019-01-13T17:27:03.098Z,12.50
2019-01-13T17:28:06.290Z,12.40
2019-01-13T17:29:09.028Z,12.40
2019-01-13T17:30:12.200Z,12.40
2019-01-13T17:31:13.569Z,12.40
2019-01-13T17:32:19.558Z,12.50
2019-01-13T17:33:23.792Z,12.50
2019-01-13T17:34:25.179Z,12.30
2019-01-13T17:35:27.110Z,12.20
2019-01-13T17:36:28.498Z,12.30
2019-01-13T17:37:31.035Z,12.20
2019-01-13T17:38:32.366Z,12.30
2019-01-13T17:39:33.742Z,12.20
2019-01-13T17:40:35.352Z,12.20
2019-01-13T17:41:40.206Z,12.30
2019-01-13T17:42:41.579Z,12.50
2019-01-13T17:43:45.751Z,12.60
2019-01-13T17:44:47.408Z,12.70
2019-01-13T17:45:48.822Z,12.80
2019-01-13T17:46:50.214Z,12.80
2019-01-13T17:47:51.654Z,12.70
2019-01-13T17:48:53.024Z,12.70
2019-01-13T17:49:54.417Z,12.60
2019-01-13T17:50:55.885Z,12.50
2019-01-13T17:51:57.255Z,12.60
2019-01-13T17:52:58.684Z,12.60
2019-01-13T17:54:00.452Z,12.50
2019-01-13T17:55:01.833Z,12.40
2019-01-13T17:56:03.247Z,12.50
2019-01-13T17:57:04.620Z,12.30
2019-01-13T17:58:06.370Z,12.30
2019-01-13T17:59:07.745Z,12.40
2019-01-13T18:00:27.915Z,12.40
2019-01-13T18:01:29.451Z,12.40
2019-01-13T18:02:30.811Z,12.30
2019-01-13T18:03:36.400Z,12.40
2019-01-13T18:04:43.199Z,12.30
2019-01-13T18:05:42.859Z,12.40
2019-01-13T18:06:44.604Z,12.60
2019-01-13T18:07:46.000Z,12.60
2019-01-13T18:08:47.375Z,12.50
2019-01-13T18:09:50.543Z,12.50
2019-01-13T18:10:54.733Z,12.50
2019-01-13T18:11:56.240Z,12.60
2019-01-13T18:12:57.631Z,12.70
2019-01-13T18:13:59.011Z,12.60
2019-01-13T18:15:00.729Z,12.80
2019-01-13T18:16:02.107Z,12.80
2019-01-13T18:17:06.485Z,12.70
2019-01-13T18:18:07.927Z,12.70
2019-01-13T18:19:11.534Z,12.50
2019-01-13T18:20:14.250Z,12.40
2019-01-13T18:21:15.913Z,12.00
2019-01-13T18:22:17.651Z,12.10
2019-01-13T18:23:19.077Z,12.30
2019-01-13T18:24:20.552Z,12.40
2019-01-13T18:25:22.369Z,12.20
2019-01-13T18:26:24.127Z,12.20
2019-01-13T18:27:25.786Z,12.10
2019-01-13T18:28:27.221Z,12.00
2019-01-13T18:29:28.601Z,12.10
2019-01-13T18:30:29.986Z,12.10
2019-01-13T18:31:31.626Z,12.20
2019-01-13T18:32:33.272Z,12.30
2019-01-13T18:33:34.673Z,12.40
2019-01-13T18:34:38.832Z,12.30
2019-01-13T18:35:40.608Z,12.40
2019-01-13T18:36:43.686Z,12.50
2019-01-13T18:37:45.158Z,12.40
2019-01-13T18:38:48.350Z,12.20
2019-01-13T18:39:49.730Z,12.30
2019-01-13T18:40:53.156Z,12.30
2019-01-13T18:41:54.537Z,12.20
2019-01-13T18:42:58.793Z,12.20
2019-01-13T18:44:00.496Z,12.30
2019-01-13T18:45:02.247Z,12.30
2019-01-13T18:46:03.617Z,12.30
2019-01-13T18:47:04.994Z,12.30
2019-01-13T18:48:06.416Z,12.30
2019-01-13T18:49:07.806Z,12.20
2019-01-13T18:50:10.411Z,12.30
2019-01-13T18:51:11.839Z,12.40
2019-01-13T18:52:13.240Z,12.30
2019-01-13T18:53:15.213Z,12.20
2019-01-13T18:54:16.580Z,11.70
2019-01-13T18:55:17.959Z,11.20
2019-01-13T18:56:21.634Z,11.00
2019-01-13T18:57:23.007Z,10.70
2019-01-13T18:58:24.451Z,10.50
2019-01-13T18:59:25.849Z,10.10
2019-01-13T19:00:27.239Z,10.40
2019-01-13T19:01:28.630Z,10.50
2019-01-13T19:02:30.470Z,10.20
2019-01-13T19:03:33.359Z,9.80
2019-01-13T19:04:34.749Z,9.50
2019-01-13T19:05:38.416Z,9.60
2019-01-13T19:06:39.786Z,9.40
2019-01-13T19:07:41.175Z,9.20
2019-01-13T19:08:42.570Z,8.90
2019-01-13T19:09:43.956Z,8.60
2019-01-13T19:10:47.145Z,8.60
2019-01-13T19:11:51.304Z,8.60
2019-01-13T19:12:57.487Z,8.70
2019-01-13T19:14:03.815Z,9.10
2019-01-13T19:15:07.415Z,9.60
2019-01-13T19:16:10.603Z,9.50
2019-01-13T19:17:14.782Z,9.50
2019-01-13T19:18:16.162Z,9.20
2019-01-13T19:19:17.608Z,9.20
2019-01-13T19:20:18.994Z,9.40
2019-01-13T19:21:23.522Z,9.10
2019-01-13T19:22:26.563Z,9.10
2019-01-13T19:23:28.698Z,9.00
2019-01-13T19:24:30.143Z,8.80
2019-01-13T19:25:31.541Z,9.10
2019-01-13T19:26:33.280Z,8.90
2019-01-13T19:27:35.084Z,8.80
2019-01-13T19:28:36.481Z,8.90
2019-01-13T19:29:39.771Z,8.90
2019-01-13T19:30:41.151Z,8.90
2019-01-13T19:31:42.775Z,9.00
2019-01-13T19:32:44.143Z,9.00
2019-01-13T19:33:45.911Z,9.40
2019-01-13T19:34:47.467Z,9.40
2019-01-13T19:35:51.779Z,9.10
2019-01-13T19:36:55.693Z,9.00
2019-01-13T19:37:57.139Z,8.80
2019-01-13T19:38:58.541Z,8.80
2019-01-13T19:40:00.276Z,8.70
2019-01-13T19:41:01.683Z,8.80
2019-01-13T19:42:06.358Z,8.80
2019-01-13T19:43:10.507Z,9.10
2019-01-13T19:44:12.059Z,9.50
2019-01-13T19:45:17.453Z,9.20
2019-01-13T19:46:19.106Z,9.20
2019-01-13T19:47:20.499Z,9.40
2019-01-13T19:48:21.884Z,9.60
2019-01-13T19:49:23.286Z,9.90
2019-01-13T19:50:27.867Z,9.90
2019-01-13T19:51:29.503Z,9.80
2019-01-13T19:52:37.202Z,9.80
2019-01-13T19:53:41.337Z,9.90
2019-01-13T19:54:42.733Z,10.10
2019-01-13T19:55:44.331Z,10.20
2019-01-13T19:56:45.733Z,10.00
2019-01-13T19:57:47.420Z,10.10
2019-01-13T19:58:49.101Z,10.60
2019-01-13T19:59:50.475Z,10.70
2019-01-13T20:00:51.920Z,10.80
2019-01-13T20:01:53.307Z,10.60
2019-01-13T20:02:54.727Z,10.80
2019-01-13T20:04:00.840Z,10.90
2019-01-13T20:05:02.809Z,10.90
2019-01-13T20:06:04.396Z,11.00
2019-01-13T20:07:06.010Z,11.30
2019-01-13T20:08:07.535Z,11.40
2019-01-13T20:09:10.215Z,11.50
2019-01-13T20:10:12.308Z,11.60
2019-01-13T20:11:14.017Z,11.80
2019-01-13T20:12:15.414Z,11.90
2019-01-13T20:13:16.881Z,11.90
2019-01-13T20:14:18.300Z,12.00
2019-01-13T20:15:20.261Z,11.70
2019-01-13T20:16:21.765Z,11.90
2019-01-13T20:17:23.443Z,11.80
2019-01-13T20:18:27.975Z,11.80
2019-01-13T20:19:29.450Z,11.50
2019-01-13T20:20:30.836Z,11.60
2019-01-13T20:21:32.733Z,11.50
2019-01-13T20:22:34.227Z,11.60
2019-01-13T20:23:35.600Z,11.60
2019-01-13T20:24:36.971Z,11.60
2019-01-13T20:25:38.389Z,11.20
2019-01-13T20:26:39.822Z,10.90
2019-01-13T20:27:41.450Z,11.00
2019-01-13T20:28:42.832Z,10.90
2019-01-13T20:29:44.499Z,11.00
2019-01-13T20:30:45.903Z,10.60
2019-01-13T20:31:47.311Z,10.50
2019-01-13T20:32:51.722Z,10.40
2019-01-13T20:33:53.936Z,10.60
2019-01-13T20:34:55.318Z,10.30
2019-01-13T20:35:57.000Z,10.30
2019-01-13T20:36:58.504Z,10.10
2019-01-13T20:38:05.666Z,10.20
2019-01-13T20:39:09.867Z,10.40
2019-01-13T20:40:12.234Z,10.30
2019-01-13T20:41:13.624Z,10.30
2019-01-13T20:42:18.087Z,10.40
2019-01-13T20:43:19.493Z,10.30
2019-01-13T20:44:21.524Z,10.30
2019-01-13T20:45:30.519Z,10.40
2019-01-13T20:46:33.832Z,10.30
2019-01-13T20:47:35.238Z,10.50
2019-01-13T20:48:36.728Z,10.80
2019-01-13T20:49:38.468Z,10.80
2019-01-13T20:50:39.851Z,10.60
2019-01-13T20:51:41.352Z,10.30
2019-01-13T20:52:42.873Z,10.20
2019-01-13T20:53:44.250Z,10.30
2019-01-13T20:54:45.919Z,10.20
2019-01-13T20:55:47.299Z,10.50
2019-01-13T20:56:48.699Z,10.60
2019-01-13T20:57:50.171Z,10.40
2019-01-13T20:58:51.603Z,10.30
2019-01-13T20:59:52.989Z,10.00
2019-01-13T21:00:54.667Z,10.20
2019-01-13T21:01:56.051Z,10.00
2019-01-13T21:02:57.506Z,9.70
2019-01-13T21:03:58.947Z,9.80
2019-01-13T21:05:00.336Z,9.50
2019-01-13T21:06:01.724Z,9.30
2019-01-13T21:07:03.382Z,9.50
2019-01-13T21:08:04.888Z,9.80
2019-01-13T21:09:08.386Z,9.70
2019-01-13T21:10:10.995Z,9.80
2019-01-13T21:11:14.952Z,10.00
2019-01-13T21:12:16.331Z,9.80
2019-01-13T21:13:18.186Z,9.60
2019-01-13T21:14:22.092Z,10.10
2019-01-13T21:15:29.160Z,10.30
2019-01-13T21:16:30.632Z,10.50
2019-01-13T21:17:32.027Z,10.00
2019-01-13T21:18:34.293Z,9.90
2019-01-13T21:19:35.664Z,9.50
2019-01-13T21:20:43.242Z,9.50
2019-01-13T21:21:44.635Z,9.90
2019-01-13T21:22:49.136Z,9.90
2019-01-13T21:23:52.199Z,10.10
2019-01-13T21:24:54.174Z,10.00
2019-01-13T21:25:55.560Z,10.00
2019-01-13T21:27:00.019Z,9.90
2019-01-13T21:28:01.515Z,9.90
2019-01-13T21:29:05.723Z,10.30
2019-01-13T21:30:09.035Z,10.40
2019-01-13T21:31:15.104Z,10.30
2019-01-13T21:32:16.515Z,10.20
2019-01-13T21:33:17.904Z,10.40
2019-01-13T21:34:19.635Z,10.40
2019-01-13T21:35:21.022Z,10.10
2019-01-13T21:36:22.473Z,10.40
2019-01-13T21:37:25.657Z,10.20
2019-01-13T21:38:27.071Z,10.20
2019-01-13T21:39:28.563Z,10.00
2019-01-13T21:40:29.945Z,10.00
2019-01-13T21:41:31.330Z,9.90
2019-01-13T21:42:32.714Z,10.10
2019-01-13T21:43:34.132Z,10.00
2019-01-13T21:44:35.634Z,9.90
2019-01-13T21:45:37.010Z,10.00
2019-01-13T21:46:38.406Z,10.30
2019-01-13T21:47:39.786Z,10.50
2019-01-13T21:48:41.181Z,10.50
2019-01-13T21:49:42.788Z,10.80
2019-01-13T21:50:44.187Z,11.00
2019-01-13T21:51:45.570Z,11.00
2019-01-13T21:52:46.975Z,11.10
2019-01-13T21:53:48.347Z,11.40
2019-01-13T21:54:49.835Z,11.20
2019-01-13T21:55:51.213Z,10.90
2019-01-13T21:56:52.611Z,10.50
2019-01-13T21:57:54.005Z,10.40
2019-01-13T21:58:55.670Z,10.70
2019-01-13T21:59:57.106Z,10.80
2019-01-13T22:00:59.193Z,10.90
2019-01-13T22:02:00.584Z,11.00
2019-01-13T22:03:01.969Z,10.70
2019-01-13T22:04:03.406Z,10.90
2019-01-13T22:05:06.310Z,11.00
2019-01-13T22:06:07.705Z,11.10
2019-01-13T22:07:10.445Z,11.20
2019-01-13T22:08:11.806Z,11.40
2019-01-13T22:09:13.210Z,11.30
2019-01-13T22:10:15.774Z,11.50
2019-01-13T22:11:17.176Z,11.20
2019-01-13T22:12:18.559Z,11.30
2019-01-13T22:13:20.566Z,11.20
2019-01-13T22:14:21.953Z,11.20
2019-01-13T22:15:23.399Z,11.20
2019-01-13T22:16:26.448Z,11.20
2019-01-13T22:17:29.206Z,11.30
2019-01-13T22:18:30.543Z,11.60
2019-01-13T22:19:31.925Z,11.60
2019-01-13T22:20:33.452Z,11.60
2019-01-13T22:21:34.836Z,11.20
2019-01-13T22:22:36.246Z,11.20
2019-01-13T22:23:37.639Z,11.50
2019-01-13T22:24:39.023Z,11.60
2019-01-13T22:25:40.750Z,11.60
2019-01-13T22:26:42.132Z,11.60
2019-01-13T22:27:43.541Z,11.50
2019-01-13T22:28:44.920Z,11.50
2019-01-13T22:29:46.310Z,11.50
2019-01-13T22:30:48.063Z,11.40
2019-01-13T22:31:50.968Z,11.20
2019-01-13T22:32:54.883Z,11.10
2019-01-13T22:33:56.262Z,11.30
2019-01-13T22:34:57.941Z,11.20
2019-01-13T22:35:59.362Z,11.50
2019-01-13T22:37:00.752Z,11.70
2019-01-13T22:38:02.604Z,11.80
2019-01-13T22:39:07.746Z,11.70
2019-01-13T22:40:13.134Z,11.50
2019-01-13T22:41:14.617Z,11.60
2019-01-13T22:42:16.000Z,11.10
2019-01-13T22:43:17.380Z,11.20
2019-01-13T22:44:18.758Z,11.40
2019-01-13T22:45:20.843Z,11.50
2019-01-13T22:46:22.273Z,11.30
2019-01-13T22:47:23.687Z,11.30
2019-01-13T22:48:25.070Z,11.60
2019-01-13T22:49:26.455Z,11.70
2019-01-13T22:50:28.162Z,11.90
2019-01-13T22:51:29.667Z,11.90
2019-01-13T22:52:31.359Z,11.80
2019-01-13T22:53:34.545Z,11.90
2019-01-13T22:54:35.905Z,11.80
2019-01-13T22:55:37.286Z,11.80
2019-01-13T22:56:38.994Z,11.80
2019-01-13T22:57:40.707Z,11.70
2019-01-13T22:58:42.098Z,11.80
2019-01-13T22:59:43.770Z,11.80
2019-01-13T23:00:48.783Z,11.50